sensor_id;sensor_type;location;lat;lon;timestamp;pressure;altitude;pressure_sealevel;temperature;humidity
82728;BME280;72459;50.110;8.750;2023-11-21T00:01:31;100000.22;;;9.00;88.76
82728;BME280;72459;50.110;8.750;2023-11-21T00:03:58;99999.50;;;9.04;89.27
82728;BME280;72459;50.110;8.750;2023-11-21T00:06:23;99998.97;;;9.12;90.17
82728;BME280;72459;50.110;8.750;2023-11-21T00:08:48;100000.56;;;9.09;89.10
82728;BME280;72459;50.110;8.750;2023-11-21T00:11:15;100007.66;;;9.11;89.39
82728;BME280;72459;50.110;8.750;2023-11-21T00:13:41;100003.91;;;9.05;87.59
82728;BME280;72459;50.110;8.750;2023-11-21T00:16:07;99993.56;;;9.09;90.09
82728;BME280;72459;50.110;8.750;2023-11-21T00:18:32;100004.06;;;9.09;89.26
82728;BME280;72459;50.110;8.750;2023-11-21T00:20:58;100001.06;;;9.23;90.04
82728;BME280;72459;50.110;8.750;2023-11-21T00:23:25;99988.91;;;9.25;90.34
82728;BME280;72459;50.110;8.750;2023-11-21T00:25:51;99996.56;;;9.18;88.44
82728;BME280;72459;50.110;8.750;2023-11-21T00:28:18;99999.28;;;9.21;89.18
82728;BME280;72459;50.110;8.750;2023-11-21T00:30:43;99991.66;;;9.28;90.16
82728;BME280;72459;50.110;8.750;2023-11-21T00:33:11;100001.03;;;9.21;89.65
82728;BME280;72459;50.110;8.750;2023-11-21T00:35:37;100002.69;;;9.19;89.36
82728;BME280;72459;50.110;8.750;2023-11-21T00:38:02;99999.97;;;9.16;89.45
82728;BME280;72459;50.110;8.750;2023-11-21T00:40:28;100000.50;;;9.31;91.07
82728;BME280;72459;50.110;8.750;2023-11-21T00:42:54;99996.88;;;9.28;89.78
82728;BME280;72459;50.110;8.750;2023-11-21T00:45:21;100001.41;;;9.32;90.02
82728;BME280;72459;50.110;8.750;2023-11-21T00:47:46;100001.50;;;9.35;90.41
82728;BME280;72459;50.110;8.750;2023-11-21T00:50:12;100002.75;;;9.20;89.05
82728;BME280;72459;50.110;8.750;2023-11-21T00:52:37;99994.47;;;9.34;90.18
82728;BME280;72459;50.110;8.750;2023-11-21T00:55:04;100004.59;;;9.23;88.84
82728;BME280;72459;50.110;8.750;2023-11-21T00:57:30;100001.81;;;9.18;89.66
82728;BME280;72459;50.110;8.750;2023-11-21T00:59:55;100011.34;;;9.16;90.03
82728;BME280;72459;50.110;8.750;2023-11-21T01:02:21;100002.75;;;9.20;89.74
82728;BME280;72459;50.110;8.750;2023-11-21T01:04:46;100005.63;;;9.04;88.57
82728;BME280;72459;50.110;8.750;2023-11-21T01:07:13;100004.00;;;9.08;89.63
82728;BME280;72459;50.110;8.750;2023-11-21T01:09:39;100015.81;;;9.19;91.29
82728;BME280;72459;50.110;8.750;2023-11-21T01:12:05;100015.88;;;9.20;90.24
82728;BME280;72459;50.110;8.750;2023-11-21T01:14:32;100023.13;;;9.28;90.46
82728;BME280;72459;50.110;8.750;2023-11-21T01:16:57;100016.19;;;9.30;90.79
82728;BME280;72459;50.110;8.750;2023-11-21T01:19:23;100020.59;;;9.31;91.05
82728;BME280;72459;50.110;8.750;2023-11-21T01:21:48;100023.16;;;9.29;90.99
82728;BME280;72459;50.110;8.750;2023-11-21T01:24:14;100024.00;;;9.28;90.82
82728;BME280;72459;50.110;8.750;2023-11-21T01:26:40;100026.41;;;9.22;90.34
82728;BME280;72459;50.110;8.750;2023-11-21T01:29:05;100031.53;;;9.19;90.56
82728;BME280;72459;50.110;8.750;2023-11-21T01:31:32;100035.41;;;9.06;90.15
82728;BME280;72459;50.110;8.750;2023-11-21T01:33:58;100032.25;;;9.15;90.45
82728;BME280;72459;50.110;8.750;2023-11-21T01:36:32;100031.38;;;9.14;90.73
82728;BME280;72459;50.110;8.750;2023-11-21T01:38:58;100032.09;;;9.10;91.11
82728;BME280;72459;50.110;8.750;2023-11-21T01:41:28;100032.84;;;9.08;91.25
82728;BME280;72459;50.110;8.750;2023-11-21T01:43:56;100037.13;;;9.06;91.55
82728;BME280;72459;50.110;8.750;2023-11-21T01:46:22;100034.34;;;9.01;91.25
82728;BME280;72459;50.110;8.750;2023-11-21T01:48:48;100041.16;;;8.96;91.47
82728;BME280;72459;50.110;8.750;2023-11-21T01:51:15;100035.78;;;8.93;91.89
82728;BME280;72459;50.110;8.750;2023-11-21T01:53:40;100031.50;;;8.95;91.32
82728;BME280;72459;50.110;8.750;2023-11-21T01:56:07;100032.16;;;8.89;91.24
82728;BME280;72459;50.110;8.750;2023-11-21T01:58:33;100033.94;;;8.90;92.03
82728;BME280;72459;50.110;8.750;2023-11-21T02:00:59;100036.50;;;8.89;91.37
82728;BME280;72459;50.110;8.750;2023-11-21T02:03:24;100039.91;;;8.86;91.28
82728;BME280;72459;50.110;8.750;2023-11-21T02:05:52;100039.00;;;8.86;92.22
82728;BME280;72459;50.110;8.750;2023-11-21T02:08:19;100043.41;;;8.87;92.22
82728;BME280;72459;50.110;8.750;2023-11-21T02:10:45;100047.00;;;8.89;92.26
82728;BME280;72459;50.110;8.750;2023-11-21T02:13:10;100050.38;;;8.86;92.15
82728;BME280;72459;50.110;8.750;2023-11-21T02:15:36;100048.50;;;8.82;92.20
82728;BME280;72459;50.110;8.750;2023-11-21T02:18:03;100047.59;;;8.82;92.17
82728;BME280;72459;50.110;8.750;2023-11-21T02:20:31;100044.97;;;8.82;92.42
82728;BME280;72459;50.110;8.750;2023-11-21T02:23:00;100054.38;;;8.77;92.54
82728;BME280;72459;50.110;8.750;2023-11-21T02:25:29;100057.19;;;8.81;92.99
82728;BME280;72459;50.110;8.750;2023-11-21T02:27:56;100059.19;;;8.88;92.84
82728;BME280;72459;50.110;8.750;2023-11-21T02:30:22;100054.91;;;8.90;92.51
82728;BME280;72459;50.110;8.750;2023-11-21T02:32:48;100054.84;;;8.89;92.46
82728;BME280;72459;50.110;8.750;2023-11-21T02:35:14;100053.19;;;8.91;92.54
82728;BME280;72459;50.110;8.750;2023-11-21T02:37:41;100056.47;;;8.85;92.24
82728;BME280;72459;50.110;8.750;2023-11-21T02:40:09;100059.88;;;8.83;92.08
82728;BME280;72459;50.110;8.750;2023-11-21T02:42:35;100052.72;;;8.79;92.63
82728;BME280;72459;50.110;8.750;2023-11-21T02:45:00;100049.97;;;8.76;92.97
82728;BME280;72459;50.110;8.750;2023-11-21T02:47:25;100054.22;;;8.72;92.67
82728;BME280;72459;50.110;8.750;2023-11-21T02:49:51;100047.19;;;8.71;93.02
82728;BME280;72459;50.110;8.750;2023-11-21T02:52:17;100039.81;;;8.61;93.11
82728;BME280;72459;50.110;8.750;2023-11-21T02:54:43;100049.56;;;8.65;93.63
82728;BME280;72459;50.110;8.750;2023-11-21T02:57:09;100045.16;;;8.64;93.25
82728;BME280;72459;50.110;8.750;2023-11-21T02:59:34;100044.22;;;8.62;93.85
82728;BME280;72459;50.110;8.750;2023-11-21T03:02:00;100046.94;;;8.65;94.30
82728;BME280;72459;50.110;8.750;2023-11-21T03:04:25;100041.72;;;8.65;93.85
82728;BME280;72459;50.110;8.750;2023-11-21T03:06:51;100046.28;;;8.71;93.63
82728;BME280;72459;50.110;8.750;2023-11-21T03:09:16;100046.25;;;8.69;93.72
82728;BME280;72459;50.110;8.750;2023-11-21T03:11:42;100044.50;;;8.70;94.04
82728;BME280;72459;50.110;8.750;2023-11-21T03:14:08;100051.41;;;8.68;93.84
82728;BME280;72459;50.110;8.750;2023-11-21T03:16:33;100043.56;;;8.68;93.77
82728;BME280;72459;50.110;8.750;2023-11-21T03:18:58;100039.16;;;8.67;93.44
82728;BME280;72459;50.110;8.750;2023-11-21T03:21:24;100045.16;;;8.64;93.19
82728;BME280;72459;50.110;8.750;2023-11-21T03:23:50;100046.78;;;8.61;93.97
82728;BME280;72459;50.110;8.750;2023-11-21T03:26:15;100054.50;;;8.57;93.65
82728;BME280;72459;50.110;8.750;2023-11-21T03:28:41;100054.50;;;8.57;93.35
82728;BME280;72459;50.110;8.750;2023-11-21T03:31:07;100067.00;;;8.65;93.55
82728;BME280;72459;50.110;8.750;2023-11-21T03:33:35;100067.00;;;8.65;94.04
82728;BME280;72459;50.110;8.750;2023-11-21T03:36:01;100067.00;;;8.65;94.06
82728;BME280;72459;50.110;8.750;2023-11-21T03:38:26;100067.91;;;8.65;94.00
82728;BME280;72459;50.110;8.750;2023-11-21T03:40:51;100074.75;;;8.62;93.72
82728;BME280;72459;50.110;8.750;2023-11-21T03:43:17;100062.50;;;8.61;94.30
82728;BME280;72459;50.110;8.750;2023-11-21T03:45:42;100069.50;;;8.62;94.06
82728;BME280;72459;50.110;8.750;2023-11-21T03:48:08;100077.38;;;8.62;94.19
82728;BME280;72459;50.110;8.750;2023-11-21T03:50:34;100087.84;;;8.62;93.77
82728;BME280;72459;50.110;8.750;2023-11-21T03:53:00;100081.78;;;8.63;93.72
82728;BME280;72459;50.110;8.750;2023-11-21T03:55:25;100089.47;;;8.58;93.80
82728;BME280;72459;50.110;8.750;2023-11-21T03:57:51;100083.38;;;8.59;94.38
82728;BME280;72459;50.110;8.750;2023-11-21T04:00:20;100089.47;;;8.58;93.93
82728;BME280;72459;50.110;8.750;2023-11-21T04:02:45;100099.69;;;8.52;93.78
82728;BME280;72459;50.110;8.750;2023-11-21T04:05:11;100099.09;;;8.59;93.96
82728;BME280;72459;50.110;8.750;2023-11-21T04:07:37;100103.16;;;8.51;93.73
82728;BME280;72459;50.110;8.750;2023-11-21T04:10:04;100091.97;;;8.55;94.14
82728;BME280;72459;50.110;8.750;2023-11-21T04:12:32;100094.88;;;8.63;93.50
82728;BME280;72459;50.110;8.750;2023-11-21T04:14:58;100102.69;;;8.61;94.19
82728;BME280;72459;50.110;8.750;2023-11-21T04:17:23;100101.13;;;8.66;94.24
82728;BME280;72459;50.110;8.750;2023-11-21T04:19:49;100100.00;;;8.60;93.42
82728;BME280;72459;50.110;8.750;2023-11-21T04:22:14;100108.69;;;8.58;94.08
82728;BME280;72459;50.110;8.750;2023-11-21T04:24:41;100103.50;;;8.60;93.87
82728;BME280;72459;50.110;8.750;2023-11-21T04:27:06;100106.84;;;8.56;93.25
82728;BME280;72459;50.110;8.750;2023-11-21T04:29:34;100107.13;;;8.64;94.48
82728;BME280;72459;50.110;8.750;2023-11-21T04:32:00;100108.69;;;8.58;93.34
82728;BME280;72459;50.110;8.750;2023-11-21T04:34:26;100116.47;;;8.57;92.74
82728;BME280;72459;50.110;8.750;2023-11-21T04:36:51;100119.53;;;8.68;93.63
82728;BME280;72459;50.110;8.750;2023-11-21T04:39:17;100118.56;;;8.66;92.85
82728;BME280;72459;50.110;8.750;2023-11-21T04:41:42;100124.78;;;8.68;93.55
82728;BME280;72459;50.110;8.750;2023-11-21T04:44:08;100124.78;;;8.68;93.14
82728;BME280;72459;50.110;8.750;2023-11-21T04:46:33;100128.72;;;8.79;94.00
82728;BME280;72459;50.110;8.750;2023-11-21T04:48:58;100126.09;;;8.79;93.61
82728;BME280;72459;50.110;8.750;2023-11-21T04:51:24;100135.84;;;8.83;94.07
82728;BME280;72459;50.110;8.750;2023-11-21T04:53:50;100140.03;;;8.78;94.06
82728;BME280;72459;50.110;8.750;2023-11-21T04:56:15;100149.66;;;8.79;94.13
82728;BME280;72459;50.110;8.750;2023-11-21T04:58:41;100148.59;;;8.74;92.77
82728;BME280;72459;50.110;8.750;2023-11-21T05:01:07;100153.38;;;8.84;94.00
82728;BME280;72459;50.110;8.750;2023-11-21T05:03:33;100153.25;;;8.81;93.13
82728;BME280;72459;50.110;8.750;2023-11-21T05:05:59;100157.00;;;8.87;94.48
82728;BME280;72459;50.110;8.750;2023-11-21T05:08:25;100159.56;;;8.86;94.51
82728;BME280;72459;50.110;8.750;2023-11-21T05:10:51;100151.03;;;8.92;93.91
82728;BME280;72459;50.110;8.750;2023-11-21T05:13:17;100156.34;;;8.93;93.79
82728;BME280;72459;50.110;8.750;2023-11-21T05:15:43;100159.09;;;8.96;94.38
82728;BME280;72459;50.110;8.750;2023-11-21T05:18:10;100165.22;;;8.97;94.29
82728;BME280;72459;50.110;8.750;2023-11-21T05:20:36;100166.13;;;8.97;93.68
82728;BME280;72459;50.110;8.750;2023-11-21T05:23:03;100165.88;;;8.91;93.51
82728;BME280;72459;50.110;8.750;2023-11-21T05:25:28;100173.81;;;8.93;94.26
82728;BME280;72459;50.110;8.750;2023-11-21T05:27:54;100177.44;;;8.96;94.09
82728;BME280;72459;50.110;8.750;2023-11-21T05:30:24;100180.53;;;8.86;92.97
82728;BME280;72459;50.110;8.750;2023-11-21T05:32:49;100188.25;;;8.83;92.67
82728;BME280;72459;50.110;8.750;2023-11-21T05:35:15;100190.41;;;8.93;93.90
82728;BME280;72459;50.110;8.750;2023-11-21T05:37:44;100186.25;;;8.98;94.17
82728;BME280;72459;50.110;8.750;2023-11-21T05:40:11;100192.50;;;9.02;94.31
82728;BME280;72459;50.110;8.750;2023-11-21T05:42:39;100186.38;;;9.01;94.12
82728;BME280;72459;50.110;8.750;2023-11-21T05:45:05;100194.00;;;8.95;93.49
82728;BME280;72459;50.110;8.750;2023-11-21T05:47:44;100189.66;;;8.96;93.99
82728;BME280;72459;50.110;8.750;2023-11-21T05:50:12;100192.72;;;8.85;93.15
82728;BME280;72459;50.110;8.750;2023-11-21T05:52:40;100200.78;;;8.90;93.70
82728;BME280;72459;50.110;8.750;2023-11-21T05:55:06;100199.13;;;8.92;94.17
82728;BME280;72459;50.110;8.750;2023-11-21T05:57:35;100204.09;;;8.86;93.52
82728;BME280;72459;50.110;8.750;2023-11-21T06:00:05;100202.50;;;8.89;94.54
82728;BME280;72459;50.110;8.750;2023-11-21T06:02:53;100202.38;;;8.86;93.89
82728;BME280;72459;50.110;8.750;2023-11-21T06:05:19;100208.63;;;8.90;93.57
82728;BME280;72459;50.110;8.750;2023-11-21T06:07:45;100207.75;;;8.89;94.08
82728;BME280;72459;50.110;8.750;2023-11-21T06:10:11;100218.09;;;8.86;94.10
82728;BME280;72459;50.110;8.750;2023-11-21T06:12:39;100208.44;;;8.85;93.76
82728;BME280;72459;50.110;8.750;2023-11-21T06:15:08;100217.09;;;8.83;94.02
82728;BME280;72459;50.110;8.750;2023-11-21T06:17:35;100226.63;;;8.81;93.17
82728;BME280;72459;50.110;8.750;2023-11-21T06:20:05;100228.41;;;8.82;94.12
82728;BME280;72459;50.110;8.750;2023-11-21T06:22:38;100235.00;;;8.72;93.35
82728;BME280;72459;50.110;8.750;2023-11-21T06:25:04;100235.31;;;8.80;93.71
82728;BME280;72459;50.110;8.750;2023-11-21T06:27:32;100240.59;;;8.81;93.44
82728;BME280;72459;50.110;8.750;2023-11-21T06:29:58;100248.09;;;8.72;92.73
82728;BME280;72459;50.110;8.750;2023-11-21T06:32:23;100243.09;;;8.78;93.90
82728;BME280;72459;50.110;8.750;2023-11-21T06:34:49;100252.75;;;8.79;94.05
82728;BME280;72459;50.110;8.750;2023-11-21T06:37:15;100252.63;;;8.76;93.41
82728;BME280;72459;50.110;8.750;2023-11-21T06:39:40;100252.44;;;8.72;93.46
82728;BME280;72459;50.110;8.750;2023-11-21T06:42:07;100261.97;;;8.70;92.94
82728;BME280;72459;50.110;8.750;2023-11-21T06:44:32;100260.22;;;8.70;92.51
82728;BME280;72459;50.110;8.750;2023-11-21T06:46:59;100267.19;;;8.70;93.44
82728;BME280;72459;50.110;8.750;2023-11-21T06:49:24;100275.94;;;8.70;92.73
82728;BME280;72459;50.110;8.750;2023-11-21T06:51:49;100285.22;;;8.62;92.68
82728;BME280;72459;50.110;8.750;2023-11-21T06:54:15;100284.69;;;8.71;93.88
82728;BME280;72459;50.110;8.750;2023-11-21T06:56:40;100286.88;;;8.60;91.18
82728;BME280;72459;50.110;8.750;2023-11-21T06:59:06;100295.13;;;8.69;93.74
82728;BME280;72459;50.110;8.750;2023-11-21T07:01:31;100295.88;;;8.67;92.60
82728;BME280;72459;50.110;8.750;2023-11-21T07:04:04;100300.94;;;8.62;93.21
82728;BME280;72459;50.110;8.750;2023-11-21T07:06:30;100303.41;;;8.59;93.17
82728;BME280;72459;50.110;8.750;2023-11-21T07:08:55;100309.56;;;8.60;92.47
82728;BME280;72459;50.110;8.750;2023-11-21T07:11:21;100315.34;;;8.52;91.83
82728;BME280;72459;50.110;8.750;2023-11-21T07:13:46;100318.81;;;8.51;92.13
82728;BME280;72459;50.110;8.750;2023-11-21T07:16:11;100325.25;;;8.60;92.58
82728;BME280;72459;50.110;8.750;2023-11-21T07:18:37;100321.34;;;8.50;92.26
82728;BME280;72459;50.110;8.750;2023-11-21T07:21:03;100331.75;;;8.48;92.08
82728;BME280;72459;50.110;8.750;2023-11-21T07:23:28;100337.91;;;8.49;92.17
82728;BME280;72459;50.110;8.750;2023-11-21T07:25:54;100337.13;;;8.51;93.07
82728;BME280;72459;50.110;8.750;2023-11-21T07:28:19;100335.22;;;8.47;91.80
82728;BME280;72459;50.110;8.750;2023-11-21T07:30:45;100344.28;;;8.55;93.01
82728;BME280;72459;50.110;8.750;2023-11-21T07:33:10;100339.19;;;8.58;93.48
82728;BME280;72459;50.110;8.750;2023-11-21T07:35:35;100346.16;;;8.58;93.00
82728;BME280;72459;50.110;8.750;2023-11-21T07:38:01;100350.78;;;8.64;93.48
82728;BME280;72459;50.110;8.750;2023-11-21T07:40:26;100343.03;;;8.67;93.54
82728;BME280;72459;50.110;8.750;2023-11-21T07:42:52;100346.75;;;8.72;93.88
82728;BME280;72459;50.110;8.750;2023-11-21T07:45:18;100349.94;;;8.65;91.91
82728;BME280;72459;50.110;8.750;2023-11-21T07:47:43;100353.09;;;8.77;93.62
82728;BME280;72459;50.110;8.750;2023-11-21T07:50:09;100352.13;;;8.75;92.16
82728;BME280;72459;50.110;8.750;2023-11-21T07:52:34;100347.91;;;8.78;93.03
82728;BME280;72459;50.110;8.750;2023-11-21T07:55:00;100362.59;;;8.75;92.86
82728;BME280;72459;50.110;8.750;2023-11-21T07:57:25;100358.50;;;8.61;88.76
82728;BME280;72459;50.110;8.750;2023-11-21T07:59:51;100368.47;;;8.69;90.04
82728;BME280;72459;50.110;8.750;2023-11-21T08:02:18;100368.13;;;8.81;92.35
82728;BME280;72459;50.110;8.750;2023-11-21T08:04:44;100364.53;;;8.79;91.71
82728;BME280;72459;50.110;8.750;2023-11-21T08:07:09;100379.34;;;8.78;90.35
82728;BME280;72459;50.110;8.750;2023-11-21T08:09:36;100373.63;;;8.87;91.89
82728;BME280;72459;50.110;8.750;2023-11-21T08:12:01;100380.66;;;8.88;91.73
82728;BME280;72459;50.110;8.750;2023-11-21T08:14:27;100372.47;;;8.80;91.24
82728;BME280;72459;50.110;8.750;2023-11-21T08:16:53;100383.97;;;8.84;92.90
82728;BME280;72459;50.110;8.750;2023-11-21T08:19:22;100380.44;;;8.83;91.95
82728;BME280;72459;50.110;8.750;2023-11-21T08:21:50;100384.09;;;8.87;92.79
82728;BME280;72459;50.110;8.750;2023-11-21T08:24:15;100389.22;;;8.84;92.69
82728;BME280;72459;50.110;8.750;2023-11-21T08:26:41;100393.69;;;8.86;93.25
82728;BME280;72459;50.110;8.750;2023-11-21T08:29:06;100400.59;;;8.84;90.79
82728;BME280;72459;50.110;8.750;2023-11-21T08:31:32;100396.19;;;8.83;91.02
82728;BME280;72459;50.110;8.750;2023-11-21T08:33:57;100396.78;;;8.97;91.77
82728;BME280;72459;50.110;8.750;2023-11-21T08:36:23;100408.78;;;8.92;91.73
82728;BME280;72459;50.110;8.750;2023-11-21T08:38:49;100409.94;;;8.99;92.85
82728;BME280;72459;50.110;8.750;2023-11-21T08:41:17;100409.31;;;9.04;93.03
82728;BME280;72459;50.110;8.750;2023-11-21T08:43:43;100411.94;;;9.04;92.49
82728;BME280;72459;50.110;8.750;2023-11-21T08:46:08;100413.13;;;9.11;91.80
82728;BME280;72459;50.110;8.750;2023-11-21T08:48:37;100416.66;;;9.11;91.59
82728;BME280;72459;50.110;8.750;2023-11-21T08:51:03;100416.78;;;9.14;92.26
82728;BME280;72459;50.110;8.750;2023-11-21T08:53:29;100416.91;;;9.17;91.61
82728;BME280;72459;50.110;8.750;2023-11-21T08:55:56;100419.09;;;9.28;92.56
82728;BME280;72459;50.110;8.750;2023-11-21T08:58:22;100427.91;;;9.30;91.42
82728;BME280;72459;50.110;8.750;2023-11-21T09:00:47;100427.28;;;9.35;91.58
82728;BME280;72459;50.110;8.750;2023-11-21T09:03:13;100430.59;;;9.31;91.26
82728;BME280;72459;50.110;8.750;2023-11-21T09:05:39;100444.81;;;9.36;92.07
82728;BME280;72459;50.110;8.750;2023-11-21T09:08:04;100443.28;;;9.41;91.89
82728;BME280;72459;50.110;8.750;2023-11-21T09:10:30;100455.94;;;9.31;90.62
82728;BME280;72459;50.110;8.750;2023-11-21T09:12:56;100458.03;;;9.18;88.34
82728;BME280;72459;50.110;8.750;2023-11-21T09:15:22;100461.88;;;9.27;90.40
82728;BME280;72459;50.110;8.750;2023-11-21T09:17:47;100458.22;;;9.23;91.61
82728;BME280;72459;50.110;8.750;2023-11-21T09:20:12;100459.00;;;9.20;91.64
82728;BME280;72459;50.110;8.750;2023-11-21T09:22:40;100459.75;;;9.18;91.12
82728;BME280;72459;50.110;8.750;2023-11-21T09:25:06;100474.31;;;9.11;90.66
82728;BME280;72459;50.110;8.750;2023-11-21T09:27:33;100467.34;;;9.12;91.13
82728;BME280;72459;50.110;8.750;2023-11-21T09:29:59;100472.16;;;9.22;91.62
82728;BME280;72459;50.110;8.750;2023-11-21T09:32:25;100471.78;;;9.34;90.54
82728;BME280;72459;50.110;8.750;2023-11-21T09:34:50;100478.03;;;9.16;87.23
82728;BME280;72459;50.110;8.750;2023-11-21T09:37:23;100481.38;;;9.33;89.05
82728;BME280;72459;50.110;8.750;2023-11-21T09:39:49;100472.81;;;9.37;90.21
82728;BME280;72459;50.110;8.750;2023-11-21T09:42:37;100478.97;;;9.38;88.41
82728;BME280;72459;50.110;8.750;2023-11-21T09:45:25;100479.00;;;9.18;89.20
82728;BME280;72459;50.110;8.750;2023-11-21T09:47:53;100479.75;;;8.97;89.84
82728;BME280;72459;50.110;8.750;2023-11-21T09:50:21;100484.72;;;8.90;90.65
82728;BME280;72459;50.110;8.750;2023-11-21T09:53:18;100489.41;;;8.78;90.42
82728;BME280;72459;50.110;8.750;2023-11-21T09:55:47;100488.09;;;8.69;90.98
82728;BME280;72459;50.110;8.750;2023-11-21T09:58:14;100490.78;;;8.70;92.42
82728;BME280;72459;50.110;8.750;2023-11-21T10:00:47;100493.13;;;8.64;92.42
82728;BME280;72459;50.110;8.750;2023-11-21T10:03:14;100491.25;;;8.62;92.63
82728;BME280;72459;50.110;8.750;2023-11-21T10:05:42;100497.81;;;8.52;90.97
82728;BME280;72459;50.110;8.750;2023-11-21T10:08:09;100495.13;;;8.50;91.17
82728;BME280;72459;50.110;8.750;2023-11-21T10:10:43;100494.22;;;8.50;90.12
82728;BME280;72459;50.110;8.750;2023-11-21T10:13:13;100498.78;;;8.54;91.20
82728;BME280;72459;50.110;8.750;2023-11-21T10:15:42;100499.66;;;8.54;91.11
82728;BME280;72459;50.110;8.750;2023-11-21T10:18:14;100502.34;;;8.56;90.63
82728;BME280;72459;50.110;8.750;2023-11-21T10:20:45;100503.41;;;8.60;91.27
82728;BME280;72459;50.110;8.750;2023-11-21T10:23:21;100510.50;;;8.62;90.76
82728;BME280;72459;50.110;8.750;2023-11-21T10:25:47;100513.47;;;8.70;91.46
82728;BME280;72459;50.110;8.750;2023-11-21T10:28:13;100515.63;;;8.78;90.68
82728;BME280;72459;50.110;8.750;2023-11-21T10:30:39;100516.94;;;8.88;89.18
82728;BME280;72459;50.110;8.750;2023-11-21T10:33:06;100513.28;;;9.04;90.17
82728;BME280;72459;50.110;8.750;2023-11-21T10:35:58;100515.38;;;9.11;90.38
82728;BME280;72459;50.110;8.750;2023-11-21T10:38:27;100518.88;;;9.11;89.62
82728;BME280;72459;50.110;8.750;2023-11-21T10:40:55;100522.41;;;9.12;89.70
82728;BME280;72459;50.110;8.750;2023-11-21T10:43:24;100528.38;;;9.09;90.13
82728;BME280;72459;50.110;8.750;2023-11-21T10:45:50;100525.03;;;9.12;86.74
82728;BME280;72459;50.110;8.750;2023-11-21T10:48:16;100515.44;;;9.12;89.53
82728;BME280;72459;50.110;8.750;2023-11-21T10:50:43;100516.94;;;9.07;85.17
82728;BME280;72459;50.110;8.750;2023-11-21T10:53:09;100515.38;;;9.11;85.23
82728;BME280;72459;50.110;8.750;2023-11-21T10:55:37;100515.50;;;9.14;87.30
82728;BME280;72459;50.110;8.750;2023-11-21T10:58:03;100511.44;;;9.20;89.05
82728;BME280;72459;50.110;8.750;2023-11-21T11:00:32;100509.06;;;9.27;84.72
82728;BME280;72459;50.110;8.750;2023-11-21T11:02:58;100513.25;;;9.42;89.18
82728;BME280;72459;50.110;8.750;2023-11-21T11:05:27;100514.25;;;9.65;88.99
82728;BME280;72459;50.110;8.750;2023-11-21T11:08:08;100503.38;;;9.98;87.81
82728;BME280;72459;50.110;8.750;2023-11-21T11:10:35;100502.91;;;10.29;88.30
82728;BME280;72459;50.110;8.750;2023-11-21T11:13:02;100503.91;;;10.53;85.99
82728;BME280;72459;50.110;8.750;2023-11-21T11:15:28;100509.41;;;10.83;83.06
82728;BME280;72459;50.110;8.750;2023-11-21T11:17:54;100513.94;;;11.09;87.43
82728;BME280;72459;50.110;8.750;2023-11-21T11:20:24;100512.91;;;11.30;87.20
82728;BME280;72459;50.110;8.750;2023-11-21T11:28:27;100511.34;;;11.35;81.48
82728;BME280;72459;50.110;8.750;2023-11-21T11:33:37;100517.03;;;11.47;82.57
82728;BME280;72459;50.110;8.750;2023-11-21T11:38:45;100510.19;;;11.52;86.41
82728;BME280;72459;50.110;8.750;2023-11-21T11:41:11;100511.94;;;11.52;85.74
82728;BME280;72459;50.110;8.750;2023-11-21T11:43:37;100505.72;;;11.50;84.65
82728;BME280;72459;50.110;8.750;2023-11-21T11:46:10;100512.88;;;11.54;86.75
82728;BME280;72459;50.110;8.750;2023-11-21T11:48:39;100506.03;;;11.59;85.97
82728;BME280;72459;50.110;8.750;2023-11-21T11:51:12;100512.41;;;11.65;84.76
82728;BME280;72459;50.110;8.750;2023-11-21T11:53:47;100511.06;;;11.77;88.37
82728;BME280;72459;50.110;8.750;2023-11-21T11:56:23;100519.31;;;11.62;76.50
82728;BME280;72459;50.110;8.750;2023-11-21T11:58:59;100517.22;;;11.77;86.43
82728;BME280;72459;50.110;8.750;2023-11-21T12:01:27;100507.63;;;11.78;86.66
82728;BME280;72459;50.110;8.750;2023-11-21T12:06:56;100514.19;;;11.90;87.44
82728;BME280;72459;50.110;8.750;2023-11-21T12:09:26;100514.88;;;11.85;85.42
82728;BME280;72459;50.110;8.750;2023-11-21T12:11:52;100521.94;;;11.86;85.67
82728;BME280;72459;50.110;8.750;2023-11-21T12:14:20;100519.94;;;11.79;85.64
82728;BME280;72459;50.110;8.750;2023-11-21T12:16:45;100524.59;;;11.86;86.06
82728;BME280;72459;50.110;8.750;2023-11-21T12:19:14;100534.16;;;11.84;85.80
82728;BME280;72459;50.110;8.750;2023-11-21T12:21:40;100539.94;;;11.99;88.15
82728;BME280;72459;50.110;8.750;2023-11-21T12:24:10;100539.00;;;11.97;87.52
82728;BME280;72459;50.110;8.750;2023-11-21T12:26:42;100551.88;;;11.88;85.51
82728;BME280;72459;50.110;8.750;2023-11-21T12:29:07;100541.41;;;11.67;85.70
82728;BME280;72459;50.110;8.750;2023-11-21T12:31:33;100547.09;;;11.54;86.71
82728;BME280;72459;50.110;8.750;2023-11-21T12:34:00;100548.50;;;11.44;83.98
82728;BME280;72459;50.110;8.750;2023-11-21T12:36:25;100552.59;;;11.36;85.27
82728;BME280;72459;50.110;8.750;2023-11-21T12:38:51;100559.56;;;11.34;87.10
82728;BME280;72459;50.110;8.750;2023-11-21T12:41:16;100555.75;;;11.26;87.37
82728;BME280;72459;50.110;8.750;2023-11-21T12:43:47;100563.47;;;11.21;87.96
82728;BME280;72459;50.110;8.750;2023-11-21T12:46:13;100568.56;;;11.17;86.00
82728;BME280;72459;50.110;8.750;2023-11-21T12:48:43;100566.78;;;11.16;87.03
82728;BME280;72459;50.110;8.750;2023-11-21T12:51:09;100572.03;;;11.16;87.44
82728;BME280;72459;50.110;8.750;2023-11-21T12:53:37;100579.97;;;11.17;87.21
82728;BME280;72459;50.110;8.750;2023-11-21T12:58:34;100579.63;;;11.08;87.54
82728;BME280;72459;50.110;8.750;2023-11-21T13:01:01;100577.84;;;11.07;88.21
82728;BME280;72459;50.110;8.750;2023-11-21T13:03:29;100575.97;;;11.04;81.58
82728;BME280;72459;50.110;8.750;2023-11-21T13:05:55;100581.16;;;11.03;86.61
82728;BME280;72459;50.110;8.750;2023-11-21T13:08:23;100585.91;;;11.11;88.30
82728;BME280;72459;50.110;8.750;2023-11-21T13:10:50;100583.28;;;11.11;86.88
82728;BME280;72459;50.110;8.750;2023-11-21T13:13:16;100579.69;;;11.09;89.22
82728;BME280;72459;50.110;8.750;2023-11-21T13:15:57;100585.91;;;11.11;87.36